createdAt,value
2023-04-12T00:00:27.681Z,1.33
2023-04-12T00:03:00.758Z,1.00
2023-04-12T00:05:32.359Z,1.10
2023-04-12T00:08:06.549Z,1.15
2023-04-12T00:10:43.118Z,1.20
2023-04-12T00:13:14.569Z,1.10
2023-04-12T00:15:46.230Z,1.52
2023-04-12T00:18:18.028Z,1.00
2023-04-12T00:20:49.206Z,1.10
2023-04-12T00:23:20.601Z,1.40
2023-04-12T00:25:54.238Z,1.05
2023-04-12T00:28:28.481Z,1.27
2023-04-12T00:31:00.056Z,0.93
2023-04-12T00:33:31.596Z,1.13
2023-04-12T00:36:03.904Z,1.15
2023-04-12T00:38:35.005Z,1.10
2023-04-12T00:41:10.976Z,1.27
2023-04-12T00:43:43.340Z,1.05
2023-04-12T00:46:15.439Z,1.10
2023-04-12T00:48:48.389Z,1.00
2023-04-12T00:51:22.638Z,1.60
2023-04-12T00:53:53.691Z,1.25
2023-04-12T00:56:28.690Z,0.90
2023-04-12T00:59:00.332Z,1.40
2023-04-12T01:01:32.170Z,1.10
2023-04-12T01:04:05.397Z,1.00
2023-04-12T01:06:50.685Z,1.17
2023-04-12T01:09:30.651Z,1.23
2023-04-12T01:12:12.306Z,0.80
2023-04-12T01:14:54.239Z,1.20
2023-04-12T01:17:32.352Z,1.10
2023-04-12T01:20:15.115Z,0.70
2023-04-12T01:23:10.368Z,1.23
2023-04-12T01:25:48.834Z,0.95
2023-04-12T01:28:29.431Z,0.80
2023-04-12T01:31:01.298Z,1.15
2023-04-12T01:33:34.409Z,0.85
2023-04-12T01:36:10.822Z,0.90
2023-04-12T01:38:45.142Z,0.95
2023-04-12T01:41:16.880Z,0.90
2023-04-12T01:43:52.148Z,1.02
2023-04-12T01:48:58.022Z,1.00
2023-04-12T01:51:38.874Z,0.82
2023-04-12T01:54:16.186Z,0.77
2023-04-12T01:56:53.878Z,0.90
2023-04-12T01:59:31.923Z,0.75
2023-04-12T02:02:08.833Z,0.65
2023-04-12T02:04:41.795Z,0.90
2023-04-12T02:07:12.895Z,0.80
2023-04-12T02:09:44.654Z,1.00
2023-04-12T02:12:17.098Z,0.88
2023-04-12T02:14:56.596Z,0.80
2023-04-12T02:17:29.895Z,1.00
2023-04-12T02:20:07.784Z,0.75
2023-04-12T02:22:40.748Z,0.88
2023-04-12T02:25:16.380Z,0.68
2023-04-12T02:27:50.412Z,0.98
2023-04-12T02:30:28.107Z,0.90
2023-04-12T02:32:59.142Z,0.98
2023-04-12T02:35:34.867Z,0.90
2023-04-12T02:38:11.750Z,0.93
2023-04-12T02:40:45.707Z,1.02
2023-04-12T02:43:20.457Z,0.80
2023-04-12T02:46:02.966Z,0.75
2023-04-12T02:48:41.374Z,0.80
2023-04-12T02:51:14.304Z,0.93
2023-04-12T02:53:47.681Z,0.80
2023-04-12T02:56:23.129Z,1.02
2023-04-12T02:58:59.722Z,0.85
2023-04-12T03:02:02.829Z,0.70
2023-04-12T03:04:40.566Z,0.68
2023-04-12T03:07:17.032Z,0.70
2023-04-12T03:09:54.139Z,0.75
2023-04-12T03:12:27.313Z,0.90
2023-04-12T03:15:14.123Z,1.00
2023-04-12T03:17:51.552Z,0.82
2023-04-12T03:20:28.567Z,1.00
2023-04-12T03:23:08.851Z,1.27
2023-04-12T03:28:44.760Z,0.77
2023-04-12T03:31:21.295Z,0.77
2023-04-12T03:33:55.102Z,0.80
2023-04-12T03:36:30.625Z,0.90
2023-04-12T03:39:10.686Z,0.90
2023-04-12T03:41:46.654Z,0.77
2023-04-12T03:44:18.547Z,0.95
2023-04-12T03:46:50.643Z,0.68
2023-04-12T03:49:28.177Z,0.60
2023-04-12T03:52:01.344Z,0.65
2023-04-12T03:54:32.739Z,0.80
2023-04-12T03:57:09.110Z,0.95
2023-04-12T03:59:48.095Z,0.80
2023-04-12T04:02:24.072Z,0.65
2023-04-12T04:05:03.000Z,0.82
2023-04-12T04:07:38.131Z,0.88
2023-04-12T04:12:44.301Z,1.15
2023-04-12T04:15:18.036Z,0.68
2023-04-12T04:17:50.034Z,0.82
2023-04-12T04:20:27.825Z,0.82
2023-04-12T04:22:58.795Z,0.77
2023-04-12T04:25:30.225Z,0.50
2023-04-12T04:28:05.792Z,1.48
2023-04-12T04:30:39.232Z,0.90
2023-04-12T04:33:16.166Z,0.88
2023-04-12T04:35:50.229Z,0.80
2023-04-12T04:41:12.587Z,0.90
2023-04-12T04:44:04.977Z,0.40
2023-04-12T04:46:38.574Z,0.60
2023-04-12T04:49:10.934Z,0.60
2023-04-12T04:51:51.019Z,0.90
2023-04-12T04:54:23.260Z,0.68
2023-04-12T04:56:54.972Z,0.60
2023-04-12T04:59:26.671Z,0.63
2023-04-12T05:02:04.889Z,0.60
2023-04-12T05:04:40.917Z,1.27
2023-04-12T05:07:17.184Z,0.90
2023-04-12T05:09:50.822Z,0.75
2023-04-12T05:12:23.556Z,0.80
2023-04-12T05:17:37.878Z,0.80
2023-04-12T05:20:11.157Z,0.80
2023-04-12T05:22:48.887Z,1.20
2023-04-12T05:25:22.005Z,0.50
2023-04-12T05:28:00.363Z,1.00
2023-04-12T05:30:31.818Z,1.25
2023-04-12T05:33:02.976Z,1.10
2023-04-12T05:35:34.038Z,0.75
2023-04-12T05:38:07.791Z,1.10
2023-04-12T05:40:39.186Z,1.00
2023-04-12T05:43:15.388Z,0.85
2023-04-12T05:45:46.152Z,0.68
2023-04-12T05:48:17.075Z,0.80
2023-04-12T05:50:54.199Z,0.75
2023-04-12T05:53:31.461Z,1.27
2023-04-12T05:56:04.226Z,1.05
2023-04-12T05:58:36.506Z,0.88
2023-04-12T06:01:09.257Z,0.90
2023-04-12T06:03:42.307Z,1.48
2023-04-12T06:06:16.097Z,0.75
2023-04-12T06:08:50.790Z,1.00
2023-04-12T06:13:52.557Z,1.30
2023-04-12T06:16:23.726Z,0.68
2023-04-12T06:18:55.054Z,0.65
2023-04-12T06:21:26.545Z,0.43
2023-04-12T06:24:01.017Z,0.77
2023-04-12T06:26:39.842Z,0.60
2023-04-12T06:29:12.005Z,0.80
2023-04-12T06:31:43.364Z,0.65
2023-04-12T06:34:16.442Z,0.60
2023-04-12T06:36:48.886Z,0.82
2023-04-12T06:39:23.201Z,0.63
2023-04-12T06:41:54.821Z,0.60
2023-04-12T06:44:27.607Z,0.50
2023-04-12T06:46:58.731Z,0.77
2023-04-12T06:49:29.916Z,0.70
2023-04-12T06:52:02.588Z,1.00
2023-04-12T06:54:39.036Z,0.70
2023-04-12T06:57:12.395Z,0.73
2023-04-12T06:59:43.044Z,0.80
2023-04-12T07:02:17.579Z,0.60
2023-04-12T07:04:49.172Z,0.60
2023-04-12T07:07:21.229Z,0.80
2023-04-12T07:09:55.321Z,0.50
2023-04-12T07:12:26.102Z,1.00
2023-04-12T07:14:57.677Z,0.70
2023-04-12T07:17:29.592Z,0.77
2023-04-12T07:20:08.674Z,1.20
2023-04-12T07:22:40.768Z,0.93
2023-04-12T07:25:14.421Z,1.23
2023-04-12T07:27:45.647Z,0.90
2023-04-12T07:30:17.131Z,0.85
2023-04-12T07:32:48.986Z,0.88
2023-04-12T07:35:20.870Z,0.52
2023-04-12T07:37:51.602Z,0.30
2023-04-12T07:40:27.227Z,0.50
2023-04-12T07:42:58.328Z,0.73
2023-04-12T07:45:29.417Z,1.02
2023-04-12T07:48:00.327Z,0.60
2023-04-12T07:50:31.002Z,0.82
2023-04-12T07:53:21.264Z,0.65
2023-04-12T07:55:54.742Z,0.77
2023-04-12T07:58:27.899Z,1.60
2023-04-12T08:01:01.069Z,0.60
2023-04-12T08:03:32.957Z,0.60
2023-04-12T08:06:05.871Z,0.65
2023-04-12T08:08:37.730Z,0.50
2023-04-12T08:11:12.425Z,0.50
2023-04-12T08:13:44.628Z,0.75
2023-04-12T08:16:15.972Z,0.50
2023-04-12T08:18:46.626Z,0.57
2023-04-12T08:21:17.240Z,0.82
2023-04-12T08:23:50.135Z,1.15
2023-04-12T08:26:23.897Z,0.80
2023-04-12T08:28:54.917Z,0.68
2023-04-12T08:31:30.006Z,0.50
2023-04-12T08:34:01.118Z,0.50
2023-04-12T08:36:33.046Z,0.52
2023-04-12T08:39:04.144Z,0.30
2023-04-12T08:41:41.210Z,0.50
2023-04-12T08:44:15.506Z,0.60
2023-04-12T08:46:47.223Z,0.65
2023-04-12T08:49:20.577Z,0.40
2023-04-12T08:51:51.494Z,0.57
2023-04-12T08:54:22.016Z,0.50
2023-04-12T08:56:58.044Z,0.65
2023-04-12T08:59:30.937Z,0.40
2023-04-12T09:02:02.589Z,0.65
2023-04-12T09:04:33.730Z,0.50
2023-04-12T09:07:06.194Z,0.50
2023-04-12T09:09:44.372Z,0.50
2023-04-12T09:12:20.289Z,0.40
2023-04-12T09:14:51.538Z,0.88
2023-04-12T09:17:30.179Z,0.68
2023-04-12T09:20:01.184Z,0.70
2023-04-12T09:22:40.260Z,0.68
2023-04-12T09:25:11.488Z,0.65
2023-04-12T09:27:52.379Z,1.08
2023-04-12T09:30:24.961Z,0.60
2023-04-12T09:32:56.331Z,0.68
2023-04-12T09:35:37.594Z,0.90
2023-04-12T09:38:11.203Z,0.88
2023-04-12T09:40:42.357Z,0.60
2023-04-12T09:43:16.147Z,0.35
2023-04-12T09:45:46.826Z,0.35
2023-04-12T09:48:26.548Z,0.40
2023-04-12T09:51:02.792Z,0.50
2023-04-12T09:53:34.311Z,0.57
2023-04-12T09:56:08.575Z,0.70
2023-04-12T09:58:42.843Z,0.70
2023-04-12T10:03:47.078Z,0.95
2023-04-12T10:06:18.965Z,0.45
2023-04-12T10:08:50.651Z,0.57
2023-04-12T10:11:23.340Z,0.40
2023-04-12T10:14:00.011Z,0.65
2023-04-12T10:16:31.589Z,0.50
2023-04-12T10:19:05.067Z,0.80
2023-04-12T10:21:36.058Z,0.80
2023-04-12T10:24:08.480Z,0.50
2023-04-12T10:26:44.712Z,0.90
2023-04-12T10:29:34.043Z,0.70
2023-04-12T10:32:23.851Z,0.85
2023-04-12T10:35:03.108Z,0.70
2023-04-12T10:38:02.497Z,1.10
2023-04-12T10:40:36.140Z,0.82
2023-04-12T10:43:28.442Z,0.75
2023-04-12T10:46:05.372Z,0.73
2023-04-12T10:48:37.576Z,0.80
2023-04-12T10:51:23.765Z,0.50
2023-04-12T10:53:56.841Z,0.50
2023-04-12T10:56:46.123Z,0.80
2023-04-12T10:59:56.207Z,0.63
2023-04-12T11:02:30.333Z,0.52
2023-04-12T11:07:59.942Z,0.90
2023-04-12T11:10:47.268Z,0.80
2023-04-12T11:13:29.597Z,0.55
2023-04-12T11:16:04.955Z,0.40
2023-04-12T11:18:41.045Z,0.40
2023-04-12T11:21:13.961Z,0.60
2023-04-12T11:23:46.996Z,0.40
2023-04-12T11:26:25.055Z,0.50
2023-04-12T11:28:56.655Z,0.50
2023-04-12T11:31:28.721Z,0.50
2023-04-12T11:34:03.398Z,0.70
2023-04-12T11:36:39.459Z,0.85
2023-04-12T11:39:11.259Z,0.90
2023-04-12T11:41:48.045Z,0.80
2023-04-12T11:44:23.170Z,0.60
2023-04-12T11:46:55.402Z,0.43
2023-04-12T11:49:31.988Z,0.47
2023-04-12T11:52:07.381Z,0.30
2023-04-12T11:54:38.376Z,0.50
2023-04-12T11:57:09.368Z,0.63
2023-04-12T11:59:41.359Z,0.70
2023-04-12T12:02:22.580Z,0.60
2023-04-12T12:05:00.629Z,0.50
2023-04-12T12:07:33.942Z,0.50
2023-04-12T12:10:10.019Z,0.50
2023-04-12T12:12:50.042Z,0.30
2023-04-12T12:15:26.365Z,1.25
2023-04-12T12:17:59.185Z,0.22
2023-04-12T12:20:32.907Z,0.47
2023-04-12T12:23:03.617Z,0.60
2023-04-12T12:25:35.166Z,0.63
2023-04-12T12:28:08.971Z,0.70
2023-04-12T12:30:42.833Z,0.38
2023-04-12T12:33:14.353Z,0.57
2023-04-12T12:35:48.535Z,0.40
2023-04-12T12:40:50.822Z,0.93
2023-04-12T12:43:22.874Z,0.50
2023-04-12T12:45:56.895Z,0.93
2023-04-12T12:48:28.433Z,0.40
2023-04-12T12:51:02.104Z,0.60
2023-04-12T12:53:33.097Z,0.30
2023-04-12T12:56:03.796Z,0.55
2023-04-12T12:58:34.999Z,0.30
2023-04-12T13:01:06.568Z,0.17
2023-04-12T13:03:37.841Z,0.30
2023-04-12T13:06:12.448Z,0.40
2023-04-12T13:11:13.930Z,0.35
2023-04-12T13:13:53.974Z,0.40
2023-04-12T13:16:26.765Z,0.30
2023-04-12T13:18:58.788Z,0.20
2023-04-12T13:21:32.462Z,0.22
2023-04-12T13:24:03.290Z,0.20
2023-04-12T13:26:37.291Z,0.20
2023-04-12T13:29:07.947Z,0.40
2023-04-12T13:31:39.035Z,0.30
2023-04-12T13:34:09.762Z,0.30
2023-04-12T13:36:44.336Z,0.65
2023-04-12T13:39:15.128Z,0.32
2023-04-12T13:41:47.512Z,0.38
2023-04-12T13:44:18.556Z,0.20
2023-04-12T13:46:49.419Z,0.30
2023-04-12T13:49:20.023Z,0.32
2023-04-12T13:51:55.783Z,0.30
2023-04-12T13:54:27.071Z,0.38
2023-04-12T13:56:57.954Z,0.40
2023-04-12T13:59:29.270Z,0.30
2023-04-12T14:02:00.132Z,0.30
2023-04-12T14:04:31.528Z,0.20
2023-04-12T14:07:05.057Z,0.40
2023-04-12T14:09:35.938Z,0.32
2023-04-12T14:12:06.662Z,0.30
2023-04-12T14:14:37.393Z,0.40
2023-04-12T14:17:08.241Z,0.35
2023-04-12T14:19:39.217Z,0.57
2023-04-12T14:22:12.879Z,0.30
2023-04-12T14:24:43.791Z,0.32
2023-04-12T14:27:17.260Z,0.32
2023-04-12T14:32:19.276Z,0.50
2023-04-12T14:34:50.305Z,0.70
2023-04-12T14:37:23.674Z,0.30
2023-04-12T14:39:56.987Z,0.30
2023-04-12T14:42:27.735Z,0.20
2023-04-12T14:44:58.704Z,0.17
2023-04-12T14:47:29.419Z,0.30
2023-04-12T14:50:00.293Z,0.30
2023-04-12T14:52:34.112Z,0.32
2023-04-12T14:55:08.078Z,0.30
2023-04-12T14:57:38.961Z,0.20
2023-04-12T15:00:13.806Z,0.40
2023-04-12T15:02:46.552Z,0.20
2023-04-12T15:05:17.618Z,0.30
2023-04-12T15:07:51.388Z,0.40
2023-04-12T15:10:22.815Z,0.50
2023-04-12T15:12:53.502Z,0.43
2023-04-12T15:15:25.004Z,0.35
2023-04-12T15:17:58.523Z,0.30
2023-04-12T15:20:29.285Z,0.40
2023-04-12T15:23:02.660Z,0.20
2023-04-12T15:25:33.749Z,0.20
2023-04-12T15:28:04.719Z,0.28
2023-04-12T15:30:35.770Z,0.43
2023-04-12T15:33:07.613Z,0.30
2023-04-12T15:35:38.659Z,0.30
2023-04-12T15:38:16.975Z,0.40
2023-04-12T15:40:50.002Z,0.35
2023-04-12T15:43:20.855Z,0.43
2023-04-12T15:45:53.717Z,0.40
2023-04-12T15:48:25.544Z,0.20
2023-04-12T15:50:58.110Z,0.65
2023-04-12T15:53:32.708Z,0.60
2023-04-12T15:56:04.679Z,0.40
2023-04-12T15:58:37.792Z,0.30
2023-04-12T16:01:10.579Z,0.40
2023-04-12T16:03:42.887Z,0.30
2023-04-12T16:06:19.626Z,0.30
2023-04-12T16:08:54.915Z,0.30
2023-04-12T16:11:26.804Z,0.30
2023-04-12T16:13:59.968Z,0.30
2023-04-12T16:16:30.931Z,0.20
2023-04-12T16:19:02.034Z,0.40
2023-04-12T16:21:34.102Z,0.47
2023-04-12T16:24:08.127Z,0.30
2023-04-12T16:26:39.752Z,0.30
2023-04-12T16:29:11.002Z,0.20
2023-04-12T16:31:42.286Z,0.45
2023-04-12T16:34:13.200Z,0.38
2023-04-12T16:36:44.866Z,0.30
2023-04-12T16:39:19.094Z,0.20
2023-04-12T16:41:50.280Z,0.15
2023-04-12T16:44:21.684Z,0.30
2023-04-12T16:46:52.509Z,0.40
2023-04-12T16:49:23.221Z,0.20
2023-04-12T16:51:54.178Z,0.43
2023-04-12T16:54:27.889Z,0.25
2023-04-12T16:56:59.107Z,0.45
2023-04-12T16:59:29.952Z,0.45
2023-04-12T17:02:01.321Z,1.00
2023-04-12T17:04:32.180Z,0.60
2023-04-12T17:07:03.276Z,0.40
2023-04-12T17:09:36.985Z,0.30
2023-04-12T17:12:09.479Z,0.60
2023-04-12T17:14:40.332Z,0.57
2023-04-12T17:17:11.551Z,0.63
2023-04-12T17:19:42.697Z,0.98
2023-04-12T17:22:13.523Z,0.73
2023-04-12T17:24:47.441Z,0.90
2023-04-12T17:27:19.376Z,0.55
2023-04-12T17:29:50.395Z,0.90
2023-04-12T17:32:21.271Z,0.88
2023-04-12T17:34:54.933Z,1.30
2023-04-12T17:37:27.799Z,0.98
2023-04-12T17:40:01.326Z,0.70
2023-04-12T17:42:33.084Z,0.68
2023-04-12T17:45:03.946Z,0.70
2023-04-12T17:47:34.871Z,0.60
2023-04-12T17:50:06.245Z,0.70
2023-04-12T17:52:37.272Z,0.52
2023-04-12T17:55:13.721Z,0.50
2023-04-12T17:57:45.552Z,0.40
2023-04-12T18:00:19.413Z,0.55
2023-04-12T18:02:53.469Z,0.47
2023-04-12T18:07:57.160Z,0.60
2023-04-12T18:10:33.504Z,0.63
2023-04-12T18:13:05.168Z,0.95
2023-04-12T18:15:43.149Z,1.30
2023-04-12T18:18:16.984Z,2.15
2023-04-12T18:20:48.417Z,1.13
2023-04-12T18:23:19.936Z,0.65
2023-04-12T18:25:56.012Z,0.95
2023-04-12T18:28:27.779Z,0.75
2023-04-12T18:31:02.645Z,0.50
2023-04-12T18:33:35.016Z,0.50
2023-04-12T18:36:07.885Z,1.00
2023-04-12T18:38:39.453Z,0.50
2023-04-12T18:41:16.265Z,0.85
2023-04-12T18:43:50.415Z,0.90
2023-04-12T18:46:21.902Z,1.23
2023-04-12T18:48:54.584Z,0.80
2023-04-12T18:51:29.151Z,1.05
2023-04-12T18:54:01.133Z,0.88
2023-04-12T18:56:35.624Z,0.77
2023-04-12T19:01:39.894Z,0.55
2023-04-12T19:04:10.910Z,0.68
2023-04-12T19:06:44.881Z,1.05
2023-04-12T19:09:16.037Z,0.70
2023-04-12T19:11:50.058Z,0.80
2023-04-12T19:14:21.445Z,0.60
2023-04-12T19:16:53.535Z,1.20
2023-04-12T19:19:27.068Z,0.80
2023-04-12T19:21:58.333Z,0.40
2023-04-12T19:24:31.719Z,0.52
2023-04-12T19:27:05.524Z,0.40
2023-04-12T19:29:36.447Z,0.45
2023-04-12T19:32:12.897Z,0.52
2023-04-12T19:34:45.143Z,0.50
2023-04-12T19:37:25.559Z,0.60
2023-04-12T19:39:56.638Z,0.65
2023-04-12T19:42:31.161Z,0.50
2023-04-12T19:47:47.599Z,0.52
2023-04-12T19:50:20.115Z,0.68
2023-04-12T19:52:51.531Z,0.57
2023-04-12T19:55:23.697Z,0.65
2023-04-12T19:57:58.599Z,0.85
2023-04-12T20:00:30.563Z,0.55
2023-04-12T20:03:02.350Z,0.77
2023-04-12T20:05:35.503Z,1.08
2023-04-12T20:08:06.724Z,0.93
2023-04-12T20:10:37.888Z,0.60
2023-04-12T20:13:15.451Z,0.68
2023-04-12T20:15:48.049Z,0.77
2023-04-12T20:18:19.574Z,0.45
2023-04-12T20:20:51.400Z,0.40
2023-04-12T20:23:22.719Z,0.70
2023-04-12T20:25:54.313Z,0.40
2023-04-12T20:28:31.480Z,0.50
2023-04-12T20:31:04.761Z,0.50
2023-04-12T20:33:35.537Z,0.50
2023-04-12T20:36:06.424Z,0.60
2023-04-12T20:38:37.644Z,0.50
2023-04-12T20:41:09.552Z,0.57
2023-04-12T20:43:48.020Z,0.55
2023-04-12T20:46:26.197Z,0.40
2023-04-12T20:48:59.352Z,0.50
2023-04-12T20:51:31.361Z,0.22
2023-04-12T20:54:06.082Z,0.40
2023-04-12T20:56:42.172Z,0.60
2023-04-12T20:59:17.651Z,0.50
2023-04-12T21:01:49.457Z,0.60
2023-04-12T21:04:22.638Z,0.52
2023-04-12T21:06:55.744Z,0.50
2023-04-12T21:09:27.849Z,0.70
2023-04-12T21:11:58.822Z,0.70
2023-04-12T21:14:35.214Z,0.30
2023-04-12T21:17:08.256Z,0.60
2023-04-12T21:19:42.053Z,1.00
2023-04-12T21:22:13.176Z,0.50
2023-04-12T21:24:43.991Z,0.95
2023-04-12T21:27:15.179Z,0.82
2023-04-12T21:29:49.405Z,0.52
2023-04-12T21:32:21.340Z,0.70
2023-04-12T21:34:54.640Z,0.70
2023-04-12T21:37:26.986Z,0.55
2023-04-12T21:39:58.813Z,0.70
2023-04-12T21:42:30.825Z,0.88
2023-04-12T21:45:04.942Z,0.70
2023-04-12T21:47:39.244Z,0.98
2023-04-12T21:52:44.509Z,0.50
2023-04-12T21:55:16.064Z,0.40
2023-04-12T21:57:48.641Z,0.73
2023-04-12T22:00:25.058Z,1.27
2023-04-12T22:02:57.253Z,0.85
2023-04-12T22:05:30.180Z,0.75
2023-04-12T22:08:02.266Z,0.68
2023-04-12T22:10:34.848Z,0.82
2023-04-12T22:13:10.424Z,1.17
2023-04-12T22:15:44.693Z,0.75
2023-04-12T22:20:48.475Z,0.90
2023-04-12T22:23:20.654Z,1.02
2023-04-12T22:25:51.802Z,0.98
2023-04-12T22:28:23.416Z,0.88
2023-04-12T22:30:58.242Z,1.23
2023-04-12T22:33:30.538Z,1.75
2023-04-12T22:36:02.580Z,1.40
2023-04-12T22:38:37.317Z,1.20
2023-04-12T22:41:08.769Z,0.82
2023-04-12T22:43:41.836Z,1.02
2023-04-12T22:46:16.439Z,0.88
2023-04-12T22:48:49.435Z,0.80
2023-04-12T22:51:20.014Z,0.80
2023-04-12T22:53:51.027Z,0.95
2023-04-12T22:56:22.130Z,1.00
2023-04-12T22:58:54.079Z,1.00
2023-04-12T23:01:29.653Z,0.80
2023-04-12T23:04:01.302Z,0.82
2023-04-12T23:06:33.505Z,1.02
2023-04-12T23:09:06.642Z,0.93
2023-04-12T23:11:38.435Z,1.35
2023-04-12T23:14:10.775Z,1.00
2023-04-12T23:16:52.128Z,1.17
2023-04-12T23:19:23.493Z,1.08
2023-04-12T23:21:54.755Z,1.00
2023-04-12T23:24:26.150Z,0.98
2023-04-12T23:26:58.082Z,1.42
2023-04-12T23:29:29.354Z,1.23
2023-04-12T23:32:03.128Z,1.70
2023-04-12T23:34:36.534Z,1.83
2023-04-12T23:37:07.584Z,1.73
2023-04-12T23:39:38.986Z,2.08
2023-04-12T23:42:09.925Z,1.15
2023-04-12T23:44:41.443Z,1.00
2023-04-12T23:47:14.769Z,1.65
2023-04-12T23:49:45.440Z,1.38
2023-04-12T23:52:17.931Z,1.08
2023-04-12T23:54:48.807Z,2.20
2023-04-12T23:57:19.829Z,2.05
2023-04-12T23:59:50.586Z,1.50
